sensor_id;sensor_type;location;lat;lon;timestamp;temperature;humidity
20070;DHT22;10195;50.868;4.382;2024-03-25T00:00:39;6.40;99.90
20070;DHT22;10195;50.868;4.382;2024-03-25T00:03:05;6.40;99.90
20070;DHT22;10195;50.868;4.382;2024-03-25T00:05:30;6.40;99.90
20070;DHT22;10195;50.868;4.382;2024-03-25T00:07:58;6.20;99.90
20070;DHT22;10195;50.868;4.382;2024-03-25T00:10:24;6.20;99.90
20070;DHT22;10195;50.868;4.382;2024-03-25T00:12:49;6.20;99.90
20070;DHT22;10195;50.868;4.382;2024-03-25T00:15:20;6.20;99.90
20070;DHT22;10195;50.868;4.382;2024-03-25T00:17:47;6.30;99.90
20070;DHT22;10195;50.868;4.382;2024-03-25T00:20:13;6.20;99.90
20070;DHT22;10195;50.868;4.382;2024-03-25T00:22:40;6.10;99.90
20070;DHT22;10195;50.868;4.382;2024-03-25T00:25:06;6.20;99.90
20070;DHT22;10195;50.868;4.382;2024-03-25T00:27:32;6.10;99.90
20070;DHT22;10195;50.868;4.382;2024-03-25T00:29:58;6.10;99.90
20070;DHT22;10195;50.868;4.382;2024-03-25T00:32:24;6.00;99.90
20070;DHT22;10195;50.868;4.382;2024-03-25T00:34:50;6.00;99.90
20070;DHT22;10195;50.868;4.382;2024-03-25T00:37:15;6.00;99.90
20070;DHT22;10195;50.868;4.382;2024-03-25T00:39:41;6.00;99.90
20070;DHT22;10195;50.868;4.382;2024-03-25T00:42:07;6.00;99.90
20070;DHT22;10195;50.868;4.382;2024-03-25T00:44:32;6.00;99.90
20070;DHT22;10195;50.868;4.382;2024-03-25T00:46:58;6.10;99.90
20070;DHT22;10195;50.868;4.382;2024-03-25T00:49:24;6.00;99.90
20070;DHT22;10195;50.868;4.382;2024-03-25T00:51:50;5.90;99.90
20070;DHT22;10195;50.868;4.382;2024-03-25T00:54:15;5.90;99.90
20070;DHT22;10195;50.868;4.382;2024-03-25T00:56:41;5.90;99.90
20070;DHT22;10195;50.868;4.382;2024-03-25T00:59:07;5.90;99.90
20070;DHT22;10195;50.868;4.382;2024-03-25T01:01:33;5.90;99.90
20070;DHT22;10195;50.868;4.382;2024-03-25T01:04:01;5.90;99.90
20070;DHT22;10195;50.868;4.382;2024-03-25T01:06:27;5.90;99.90
20070;DHT22;10195;50.868;4.382;2024-03-25T01:08:52;5.90;99.90
20070;DHT22;10195;50.868;4.382;2024-03-25T01:11:18;6.00;99.90
20070;DHT22;10195;50.868;4.382;2024-03-25T01:13:43;5.80;99.90
20070;DHT22;10195;50.868;4.382;2024-03-25T01:16:09;5.80;99.90
20070;DHT22;10195;50.868;4.382;2024-03-25T01:18:35;5.80;99.90
20070;DHT22;10195;50.868;4.382;2024-03-25T01:21:01;5.70;99.90
20070;DHT22;10195;50.868;4.382;2024-03-25T01:23:27;5.70;99.90
20070;DHT22;10195;50.868;4.382;2024-03-25T01:25:53;5.70;99.90
20070;DHT22;10195;50.868;4.382;2024-03-25T01:28:18;5.60;99.90
20070;DHT22;10195;50.868;4.382;2024-03-25T01:30:44;5.60;99.90
20070;DHT22;10195;50.868;4.382;2024-03-25T01:33:09;5.60;99.90
20070;DHT22;10195;50.868;4.382;2024-03-25T01:35:35;5.60;99.90
20070;DHT22;10195;50.868;4.382;2024-03-25T01:38:01;5.60;99.90
20070;DHT22;10195;50.868;4.382;2024-03-25T01:40:27;5.60;99.90
20070;DHT22;10195;50.868;4.382;2024-03-25T01:42:59;5.60;99.90
20070;DHT22;10195;50.868;4.382;2024-03-25T01:45:28;5.60;99.90
20070;DHT22;10195;50.868;4.382;2024-03-25T01:47:56;5.60;99.90
20070;DHT22;10195;50.868;4.382;2024-03-25T01:50:22;5.60;99.90
20070;DHT22;10195;50.868;4.382;2024-03-25T01:52:48;5.60;99.90
20070;DHT22;10195;50.868;4.382;2024-03-25T01:55:29;5.50;99.90
20070;DHT22;10195;50.868;4.382;2024-03-25T01:57:56;5.40;99.90
20070;DHT22;10195;50.868;4.382;2024-03-25T02:00:23;5.50;99.90
20070;DHT22;10195;50.868;4.382;2024-03-25T02:02:49;5.40;99.90
20070;DHT22;10195;50.868;4.382;2024-03-25T02:05:17;5.40;99.90
20070;DHT22;10195;50.868;4.382;2024-03-25T02:07:43;5.40;99.90
20070;DHT22;10195;50.868;4.382;2024-03-25T02:10:10;5.50;99.90
20070;DHT22;10195;50.868;4.382;2024-03-25T02:12:36;5.40;99.90
20070;DHT22;10195;50.868;4.382;2024-03-25T02:15:04;5.30;99.90
20070;DHT22;10195;50.868;4.382;2024-03-25T02:17:30;5.30;99.90
20070;DHT22;10195;50.868;4.382;2024-03-25T02:19:55;5.20;99.90
20070;DHT22;10195;50.868;4.382;2024-03-25T02:22:21;5.30;99.90
20070;DHT22;10195;50.868;4.382;2024-03-25T02:24:50;5.20;99.90
20070;DHT22;10195;50.868;4.382;2024-03-25T02:27:17;5.20;99.90
20070;DHT22;10195;50.868;4.382;2024-03-25T02:29:43;5.20;99.90
20070;DHT22;10195;50.868;4.382;2024-03-25T02:32:10;5.20;99.90
20070;DHT22;10195;50.868;4.382;2024-03-25T02:34:41;5.20;99.90
20070;DHT22;10195;50.868;4.382;2024-03-25T02:37:06;5.20;99.90
20070;DHT22;10195;50.868;4.382;2024-03-25T02:39:33;5.20;99.90
20070;DHT22;10195;50.868;4.382;2024-03-25T02:41:59;5.20;99.90
20070;DHT22;10195;50.868;4.382;2024-03-25T02:44:25;5.30;99.90
20070;DHT22;10195;50.868;4.382;2024-03-25T02:46:51;5.40;99.90
20070;DHT22;10195;50.868;4.382;2024-03-25T02:49:17;5.40;99.90
20070;DHT22;10195;50.868;4.382;2024-03-25T02:51:43;5.40;99.90
20070;DHT22;10195;50.868;4.382;2024-03-25T02:54:09;5.40;99.90
20070;DHT22;10195;50.868;4.382;2024-03-25T02:56:34;5.30;99.90
20070;DHT22;10195;50.868;4.382;2024-03-25T02:59:01;5.30;99.90
20070;DHT22;10195;50.868;4.382;2024-03-25T03:01:26;5.40;99.90
20070;DHT22;10195;50.868;4.382;2024-03-25T03:03:52;5.30;99.90
20070;DHT22;10195;50.868;4.382;2024-03-25T03:06:17;5.30;99.90
20070;DHT22;10195;50.868;4.382;2024-03-25T03:08:44;5.20;99.90
20070;DHT22;10195;50.868;4.382;2024-03-25T03:11:10;5.20;99.90
20070;DHT22;10195;50.868;4.382;2024-03-25T03:13:35;5.30;99.90
20070;DHT22;10195;50.868;4.382;2024-03-25T03:16:01;5.40;99.90
20070;DHT22;10195;50.868;4.382;2024-03-25T03:18:27;5.50;99.90
20070;DHT22;10195;50.868;4.382;2024-03-25T03:20:53;5.60;99.90
20070;DHT22;10195;50.868;4.382;2024-03-25T03:23:24;5.70;99.90
20070;DHT22;10195;50.868;4.382;2024-03-25T03:25:49;5.70;99.90
20070;DHT22;10195;50.868;4.382;2024-03-25T03:28:16;5.90;99.90
20070;DHT22;10195;50.868;4.382;2024-03-25T03:30:42;5.90;99.90
20070;DHT22;10195;50.868;4.382;2024-03-25T03:33:08;5.90;99.90
20070;DHT22;10195;50.868;4.382;2024-03-25T03:35:34;6.00;99.90
20070;DHT22;10195;50.868;4.382;2024-03-25T03:38:00;6.00;99.90
20070;DHT22;10195;50.868;4.382;2024-03-25T03:40:25;6.10;99.90
20070;DHT22;10195;50.868;4.382;2024-03-25T03:42:51;6.00;99.90
20070;DHT22;10195;50.868;4.382;2024-03-25T03:45:16;6.00;99.90
20070;DHT22;10195;50.868;4.382;2024-03-25T03:47:42;6.00;99.90
20070;DHT22;10195;50.868;4.382;2024-03-25T03:50:09;6.10;99.90
20070;DHT22;10195;50.868;4.382;2024-03-25T03:52:34;6.10;99.90
20070;DHT22;10195;50.868;4.382;2024-03-25T03:55:00;6.20;99.90
20070;DHT22;10195;50.868;4.382;2024-03-25T03:57:25;6.10;99.90
20070;DHT22;10195;50.868;4.382;2024-03-25T03:59:51;6.20;99.90
20070;DHT22;10195;50.868;4.382;2024-03-25T04:02:17;6.20;99.90
20070;DHT22;10195;50.868;4.382;2024-03-25T04:04:43;6.20;99.90
20070;DHT22;10195;50.868;4.382;2024-03-25T04:07:08;6.30;99.90
20070;DHT22;10195;50.868;4.382;2024-03-25T04:09:34;6.30;99.90
20070;DHT22;10195;50.868;4.382;2024-03-25T04:12:00;6.40;99.90
20070;DHT22;10195;50.868;4.382;2024-03-25T04:14:26;6.40;99.90
20070;DHT22;10195;50.868;4.382;2024-03-25T04:16:52;6.40;99.90
20070;DHT22;10195;50.868;4.382;2024-03-25T04:19:19;6.40;99.90
20070;DHT22;10195;50.868;4.382;2024-03-25T04:21:45;6.40;99.90
20070;DHT22;10195;50.868;4.382;2024-03-25T04:24:11;6.30;99.90
20070;DHT22;10195;50.868;4.382;2024-03-25T04:26:37;6.40;99.90
20070;DHT22;10195;50.868;4.382;2024-03-25T04:29:03;6.30;99.90
20070;DHT22;10195;50.868;4.382;2024-03-25T04:31:29;6.30;99.90
20070;DHT22;10195;50.868;4.382;2024-03-25T04:33:54;6.40;99.90
20070;DHT22;10195;50.868;4.382;2024-03-25T04:36:20;6.30;99.90
20070;DHT22;10195;50.868;4.382;2024-03-25T04:38:46;6.30;99.90
20070;DHT22;10195;50.868;4.382;2024-03-25T04:41:12;6.30;99.90
20070;DHT22;10195;50.868;4.382;2024-03-25T04:43:38;6.30;99.90
20070;DHT22;10195;50.868;4.382;2024-03-25T04:46:04;6.30;99.90
20070;DHT22;10195;50.868;4.382;2024-03-25T04:48:29;6.30;99.90
20070;DHT22;10195;50.868;4.382;2024-03-25T04:50:55;6.30;99.90
20070;DHT22;10195;50.868;4.382;2024-03-25T04:53:21;6.30;99.90
20070;DHT22;10195;50.868;4.382;2024-03-25T04:55:46;6.20;99.90
20070;DHT22;10195;50.868;4.382;2024-03-25T04:58:12;6.20;99.90
20070;DHT22;10195;50.868;4.382;2024-03-25T05:00:37;6.20;99.90
20070;DHT22;10195;50.868;4.382;2024-03-25T05:03:03;6.30;99.90
20070;DHT22;10195;50.868;4.382;2024-03-25T05:05:29;6.20;99.90
20070;DHT22;10195;50.868;4.382;2024-03-25T05:07:55;6.20;99.90
20070;DHT22;10195;50.868;4.382;2024-03-25T05:10:21;6.10;99.90
20070;DHT22;10195;50.868;4.382;2024-03-25T05:12:46;6.00;99.90
20070;DHT22;10195;50.868;4.382;2024-03-25T05:15:15;6.10;99.90
20070;DHT22;10195;50.868;4.382;2024-03-25T05:17:41;6.10;99.90
20070;DHT22;10195;50.868;4.382;2024-03-25T05:20:06;6.00;99.90
20070;DHT22;10195;50.868;4.382;2024-03-25T05:22:32;6.00;99.90
20070;DHT22;10195;50.868;4.382;2024-03-25T05:24:58;5.90;99.90
20070;DHT22;10195;50.868;4.382;2024-03-25T05:27:23;5.90;99.90
20070;DHT22;10195;50.868;4.382;2024-03-25T05:29:50;5.90;99.90
20070;DHT22;10195;50.868;4.382;2024-03-25T05:32:15;5.90;99.90
20070;DHT22;10195;50.868;4.382;2024-03-25T05:34:43;5.90;99.90
20070;DHT22;10195;50.868;4.382;2024-03-25T05:37:08;5.90;99.90
20070;DHT22;10195;50.868;4.382;2024-03-25T05:39:34;6.00;99.90
20070;DHT22;10195;50.868;4.382;2024-03-25T05:42:00;6.00;99.90
20070;DHT22;10195;50.868;4.382;2024-03-25T05:44:25;6.00;99.90
20070;DHT22;10195;50.868;4.382;2024-03-25T05:46:51;6.10;99.90
20070;DHT22;10195;50.868;4.382;2024-03-25T05:49:16;6.20;99.90
20070;DHT22;10195;50.868;4.382;2024-03-25T05:51:42;6.30;99.90
20070;DHT22;10195;50.868;4.382;2024-03-25T05:54:08;6.30;99.90
20070;DHT22;10195;50.868;4.382;2024-03-25T05:56:33;6.40;99.90
20070;DHT22;10195;50.868;4.382;2024-03-25T05:59:00;6.50;99.90
20070;DHT22;10195;50.868;4.382;2024-03-25T06:01:26;6.60;99.90
20070;DHT22;10195;50.868;4.382;2024-03-25T06:03:52;6.70;99.90
20070;DHT22;10195;50.868;4.382;2024-03-25T06:06:17;6.70;99.90
20070;DHT22;10195;50.868;4.382;2024-03-25T06:08:43;6.80;99.90
20070;DHT22;10195;50.868;4.382;2024-03-25T06:11:09;6.90;99.90
20070;DHT22;10195;50.868;4.382;2024-03-25T06:13:35;7.00;99.90
20070;DHT22;10195;50.868;4.382;2024-03-25T06:16:00;7.10;99.90
20070;DHT22;10195;50.868;4.382;2024-03-25T06:18:26;7.20;99.90
20070;DHT22;10195;50.868;4.382;2024-03-25T06:20:52;7.30;99.90
20070;DHT22;10195;50.868;4.382;2024-03-25T06:23:25;7.30;99.90
20070;DHT22;10195;50.868;4.382;2024-03-25T06:25:51;7.40;99.90
20070;DHT22;10195;50.868;4.382;2024-03-25T06:28:17;7.50;99.90
20070;DHT22;10195;50.868;4.382;2024-03-25T06:30:43;7.60;99.90
20070;DHT22;10195;50.868;4.382;2024-03-25T06:33:27;7.70;99.90
20070;DHT22;10195;50.868;4.382;2024-03-25T06:36:11;7.90;99.90
20070;DHT22;10195;50.868;4.382;2024-03-25T06:38:36;7.90;99.90
20070;DHT22;10195;50.868;4.382;2024-03-25T06:41:02;8.10;99.90
20070;DHT22;10195;50.868;4.382;2024-03-25T06:43:28;8.10;99.90
20070;DHT22;10195;50.868;4.382;2024-03-25T06:45:53;8.00;99.90
20070;DHT22;10195;50.868;4.382;2024-03-25T06:48:19;8.00;99.90
20070;DHT22;10195;50.868;4.382;2024-03-25T06:50:57;8.20;99.90
20070;DHT22;10195;50.868;4.382;2024-03-25T06:53:24;8.20;99.90
20070;DHT22;10195;50.868;4.382;2024-03-25T06:55:57;8.30;99.90
20070;DHT22;10195;50.868;4.382;2024-03-25T06:58:25;8.30;99.90
20070;DHT22;10195;50.868;4.382;2024-03-25T07:00:51;8.50;99.90
20070;DHT22;10195;50.868;4.382;2024-03-25T07:03:21;8.60;99.90
20070;DHT22;10195;50.868;4.382;2024-03-25T07:05:48;8.70;99.90
20070;DHT22;10195;50.868;4.382;2024-03-25T07:08:17;8.50;99.90
20070;DHT22;10195;50.868;4.382;2024-03-25T07:10:45;8.50;99.90
20070;DHT22;10195;50.868;4.382;2024-03-25T07:13:11;8.70;99.90
20070;DHT22;10195;50.868;4.382;2024-03-25T07:15:38;9.00;99.90
20070;DHT22;10195;50.868;4.382;2024-03-25T07:18:04;9.10;99.90
20070;DHT22;10195;50.868;4.382;2024-03-25T07:20:30;9.30;99.90
20070;DHT22;10195;50.868;4.382;2024-03-25T07:22:56;9.70;99.90
20070;DHT22;10195;50.868;4.382;2024-03-25T07:25:23;9.90;99.90
20070;DHT22;10195;50.868;4.382;2024-03-25T07:27:48;9.70;99.90
20070;DHT22;10195;50.868;4.382;2024-03-25T07:30:14;9.60;99.90
20070;DHT22;10195;50.868;4.382;2024-03-25T07:32:40;9.80;99.90
20070;DHT22;10195;50.868;4.382;2024-03-25T07:35:07;10.30;99.90
20070;DHT22;10195;50.868;4.382;2024-03-25T07:37:35;10.80;99.90
20070;DHT22;10195;50.868;4.382;2024-03-25T07:40:00;10.90;99.90
20070;DHT22;10195;50.868;4.382;2024-03-25T07:42:26;11.50;99.90
20070;DHT22;10195;50.868;4.382;2024-03-25T07:44:51;12.00;99.90
20070;DHT22;10195;50.868;4.382;2024-03-25T07:47:18;11.80;99.90
20070;DHT22;10195;50.868;4.382;2024-03-25T07:49:44;12.20;99.90
20070;DHT22;10195;50.868;4.382;2024-03-25T07:52:09;12.50;99.90
20070;DHT22;10195;50.868;4.382;2024-03-25T07:54:35;12.30;99.90
20070;DHT22;10195;50.868;4.382;2024-03-25T07:57:03;12.50;99.90
20070;DHT22;10195;50.868;4.382;2024-03-25T07:59:29;12.40;99.90
20070;DHT22;10195;50.868;4.382;2024-03-25T08:01:55;11.90;99.90
20070;DHT22;10195;50.868;4.382;2024-03-25T08:04:21;11.10;99.90
20070;DHT22;10195;50.868;4.382;2024-03-25T08:06:46;10.80;99.90
20070;DHT22;10195;50.868;4.382;2024-03-25T08:09:12;10.60;99.90
20070;DHT22;10195;50.868;4.382;2024-03-25T08:11:39;10.90;99.90
20070;DHT22;10195;50.868;4.382;2024-03-25T08:14:05;11.10;99.90
20070;DHT22;10195;50.868;4.382;2024-03-25T08:16:30;11.60;99.90
20070;DHT22;10195;50.868;4.382;2024-03-25T08:18:56;12.00;99.90
20070;DHT22;10195;50.868;4.382;2024-03-25T08:21:23;12.60;99.90
20070;DHT22;10195;50.868;4.382;2024-03-25T08:23:48;13.00;99.90
20070;DHT22;10195;50.868;4.382;2024-03-25T08:26:14;13.70;99.90
20070;DHT22;10195;50.868;4.382;2024-03-25T08:28:40;14.80;99.90
20070;DHT22;10195;50.868;4.382;2024-03-25T08:31:05;15.00;99.90
20070;DHT22;10195;50.868;4.382;2024-03-25T08:33:31;15.10;99.90
20070;DHT22;10195;50.868;4.382;2024-03-25T08:35:57;15.90;99.90
20070;DHT22;10195;50.868;4.382;2024-03-25T08:38:23;15.10;99.90
20070;DHT22;10195;50.868;4.382;2024-03-25T08:40:48;14.50;99.90
20070;DHT22;10195;50.868;4.382;2024-03-25T08:43:14;14.40;99.90
20070;DHT22;10195;50.868;4.382;2024-03-25T08:45:39;15.20;99.90
20070;DHT22;10195;50.868;4.382;2024-03-25T08:48:06;15.40;99.90
20070;DHT22;10195;50.868;4.382;2024-03-25T08:50:32;15.50;99.90
20070;DHT22;10195;50.868;4.382;2024-03-25T08:52:57;16.40;99.90
20070;DHT22;10195;50.868;4.382;2024-03-25T08:55:23;17.30;99.90
20070;DHT22;10195;50.868;4.382;2024-03-25T08:57:49;17.10;99.90
20070;DHT22;10195;50.868;4.382;2024-03-25T09:00:15;15.80;99.90
20070;DHT22;10195;50.868;4.382;2024-03-25T09:02:41;16.30;99.90
20070;DHT22;10195;50.868;4.382;2024-03-25T09:05:07;15.70;99.90
20070;DHT22;10195;50.868;4.382;2024-03-25T09:07:33;15.80;99.90
20070;DHT22;10195;50.868;4.382;2024-03-25T09:09:59;16.20;99.90
20070;DHT22;10195;50.868;4.382;2024-03-25T09:12:43;15.50;99.90
20070;DHT22;10195;50.868;4.382;2024-03-25T09:15:09;15.40;99.90
20070;DHT22;10195;50.868;4.382;2024-03-25T09:17:37;15.00;99.90
20070;DHT22;10195;50.868;4.382;2024-03-25T09:20:03;15.10;99.90
20070;DHT22;10195;50.868;4.382;2024-03-25T09:22:58;14.70;99.90
20070;DHT22;10195;50.868;4.382;2024-03-25T09:25:23;14.40;99.90
20070;DHT22;10195;50.868;4.382;2024-03-25T09:27:50;14.90;99.90
20070;DHT22;10195;50.868;4.382;2024-03-25T09:30:16;15.90;99.90
20070;DHT22;10195;50.868;4.382;2024-03-25T09:32:43;16.30;99.90
20070;DHT22;10195;50.868;4.382;2024-03-25T09:35:09;16.60;99.90
20070;DHT22;10195;50.868;4.382;2024-03-25T09:37:36;17.30;99.90
20070;DHT22;10195;50.868;4.382;2024-03-25T09:40:02;18.10;99.90
20070;DHT22;10195;50.868;4.382;2024-03-25T09:42:49;17.20;99.90
20070;DHT22;10195;50.868;4.382;2024-03-25T09:45:18;17.00;99.90
20070;DHT22;10195;50.868;4.382;2024-03-25T09:47:47;18.10;99.90
20070;DHT22;10195;50.868;4.382;2024-03-25T09:50:14;19.10;99.90
20070;DHT22;10195;50.868;4.382;2024-03-25T09:52:51;18.70;99.90
20070;DHT22;10195;50.868;4.382;2024-03-25T09:55:17;17.40;99.90
20070;DHT22;10195;50.868;4.382;2024-03-25T09:57:43;16.50;99.90
20070;DHT22;10195;50.868;4.382;2024-03-25T10:00:10;16.00;99.90
20070;DHT22;10195;50.868;4.382;2024-03-25T10:02:40;16.00;99.90
20070;DHT22;10195;50.868;4.382;2024-03-25T10:05:07;17.20;99.90
20070;DHT22;10195;50.868;4.382;2024-03-25T10:07:34;17.60;99.90
20070;DHT22;10195;50.868;4.382;2024-03-25T10:10:03;18.40;99.90
20070;DHT22;10195;50.868;4.382;2024-03-25T10:12:30;19.30;99.90
20070;DHT22;10195;50.868;4.382;2024-03-25T10:14:56;19.70;99.90
20070;DHT22;10195;50.868;4.382;2024-03-25T10:17:22;20.20;99.90
20070;DHT22;10195;50.868;4.382;2024-03-25T10:19:48;19.60;99.90
20070;DHT22;10195;50.868;4.382;2024-03-25T10:22:14;19.00;99.90
20070;DHT22;10195;50.868;4.382;2024-03-25T10:24:41;18.00;99.90
20070;DHT22;10195;50.868;4.382;2024-03-25T10:27:10;17.40;99.90
20070;DHT22;10195;50.868;4.382;2024-03-25T10:29:37;16.80;99.90
20070;DHT22;10195;50.868;4.382;2024-03-25T10:32:03;16.00;99.90
20070;DHT22;10195;50.868;4.382;2024-03-25T10:34:31;15.20;99.90
20070;DHT22;10195;50.868;4.382;2024-03-25T10:36:57;15.30;99.90
20070;DHT22;10195;50.868;4.382;2024-03-25T10:39:27;15.10;99.90
20070;DHT22;10195;50.868;4.382;2024-03-25T10:41:56;14.70;99.90
20070;DHT22;10195;50.868;4.382;2024-03-25T10:44:23;14.30;99.90
20070;DHT22;10195;50.868;4.382;2024-03-25T10:47:05;14.20;99.90
20070;DHT22;10195;50.868;4.382;2024-03-25T10:49:47;13.80;99.90
20070;DHT22;10195;50.868;4.382;2024-03-25T10:52:14;13.80;99.90
20070;DHT22;10195;50.868;4.382;2024-03-25T10:54:42;13.90;99.90
20070;DHT22;10195;50.868;4.382;2024-03-25T10:57:09;14.00;99.90
20070;DHT22;10195;50.868;4.382;2024-03-25T10:59:37;13.80;99.90
20070;DHT22;10195;50.868;4.382;2024-03-25T11:02:07;13.50;99.90
20070;DHT22;10195;50.868;4.382;2024-03-25T11:04:33;13.30;99.90
20070;DHT22;10195;50.868;4.382;2024-03-25T11:07:13;12.90;99.90
20070;DHT22;10195;50.868;4.382;2024-03-25T11:09:40;13.30;99.90
20070;DHT22;10195;50.868;4.382;2024-03-25T11:12:07;13.70;99.90
20070;DHT22;10195;50.868;4.382;2024-03-25T11:14:34;14.00;99.90
20070;DHT22;10195;50.868;4.382;2024-03-25T11:17:01;14.00;99.90
20070;DHT22;10195;50.868;4.382;2024-03-25T11:19:29;14.20;99.90
20070;DHT22;10195;50.868;4.382;2024-03-25T11:22:06;14.50;99.90
20070;DHT22;10195;50.868;4.382;2024-03-25T11:24:32;14.50;99.90
20070;DHT22;10195;50.868;4.382;2024-03-25T11:26:58;14.40;99.90
20070;DHT22;10195;50.868;4.382;2024-03-25T11:29:26;14.40;99.90
20070;DHT22;10195;50.868;4.382;2024-03-25T11:31:53;14.30;99.90
20070;DHT22;10195;50.868;4.382;2024-03-25T11:34:19;14.40;99.90
20070;DHT22;10195;50.868;4.382;2024-03-25T11:36:45;14.00;99.90
20070;DHT22;10195;50.868;4.382;2024-03-25T11:39:13;14.10;99.90
20070;DHT22;10195;50.868;4.382;2024-03-25T11:41:45;14.40;99.90
20070;DHT22;10195;50.868;4.382;2024-03-25T11:44:11;14.80;99.90
20070;DHT22;10195;50.868;4.382;2024-03-25T11:46:40;14.90;99.90
20070;DHT22;10195;50.868;4.382;2024-03-25T11:49:15;14.60;99.90
20070;DHT22;10195;50.868;4.382;2024-03-25T11:51:43;13.40;99.90
20070;DHT22;10195;50.868;4.382;2024-03-25T11:54:12;13.00;99.90
20070;DHT22;10195;50.868;4.382;2024-03-25T11:56:38;12.70;99.90
20070;DHT22;10195;50.868;4.382;2024-03-25T11:59:04;12.40;99.90
20070;DHT22;10195;50.868;4.382;2024-03-25T12:01:30;12.70;99.90
20070;DHT22;10195;50.868;4.382;2024-03-25T12:04:10;13.10;99.90
20070;DHT22;10195;50.868;4.382;2024-03-25T12:06:36;13.70;99.90
20070;DHT22;10195;50.868;4.382;2024-03-25T12:09:01;13.80;99.90
20070;DHT22;10195;50.868;4.382;2024-03-25T12:11:45;13.60;99.90
20070;DHT22;10195;50.868;4.382;2024-03-25T12:14:11;13.70;99.90
20070;DHT22;10195;50.868;4.382;2024-03-25T12:16:37;13.60;99.90
20070;DHT22;10195;50.868;4.382;2024-03-25T12:19:03;13.70;99.90
20070;DHT22;10195;50.868;4.382;2024-03-25T12:21:31;13.90;99.90
20070;DHT22;10195;50.868;4.382;2024-03-25T12:23:57;13.90;99.90
20070;DHT22;10195;50.868;4.382;2024-03-25T12:26:24;14.00;99.90
20070;DHT22;10195;50.868;4.382;2024-03-25T12:28:49;13.80;99.90
20070;DHT22;10195;50.868;4.382;2024-03-25T12:31:15;13.60;99.90
20070;DHT22;10195;50.868;4.382;2024-03-25T12:33:42;13.60;99.90
20070;DHT22;10195;50.868;4.382;2024-03-25T12:36:09;13.60;99.90
20070;DHT22;10195;50.868;4.382;2024-03-25T12:38:36;13.70;99.90
20070;DHT22;10195;50.868;4.382;2024-03-25T12:41:12;13.90;99.90
20070;DHT22;10195;50.868;4.382;2024-03-25T12:43:44;14.00;99.90
20070;DHT22;10195;50.868;4.382;2024-03-25T12:46:10;14.30;99.90
20070;DHT22;10195;50.868;4.382;2024-03-25T12:48:37;14.40;99.90
20070;DHT22;10195;50.868;4.382;2024-03-25T12:51:03;14.20;99.90
20070;DHT22;10195;50.868;4.382;2024-03-25T12:53:28;14.20;99.90
20070;DHT22;10195;50.868;4.382;2024-03-25T12:55:54;14.30;99.90
20070;DHT22;10195;50.868;4.382;2024-03-25T12:58:20;14.70;99.90
20070;DHT22;10195;50.868;4.382;2024-03-25T13:00:45;15.00;99.90
20070;DHT22;10195;50.868;4.382;2024-03-25T13:03:11;15.10;99.90
20070;DHT22;10195;50.868;4.382;2024-03-25T13:05:38;15.40;99.90
20070;DHT22;10195;50.868;4.382;2024-03-25T13:08:04;15.70;99.90
20070;DHT22;10195;50.868;4.382;2024-03-25T13:10:30;15.80;99.90
20070;DHT22;10195;50.868;4.382;2024-03-25T13:12:56;15.80;99.90
20070;DHT22;10195;50.868;4.382;2024-03-25T13:15:22;15.90;99.90
20070;DHT22;10195;50.868;4.382;2024-03-25T13:17:48;16.00;99.90
20070;DHT22;10195;50.868;4.382;2024-03-25T13:20:14;15.30;99.90
20070;DHT22;10195;50.868;4.382;2024-03-25T13:22:40;14.50;99.90
20070;DHT22;10195;50.868;4.382;2024-03-25T13:25:07;14.50;99.90
20070;DHT22;10195;50.868;4.382;2024-03-25T13:27:33;14.30;99.90
20070;DHT22;10195;50.868;4.382;2024-03-25T13:29:58;14.60;99.90
20070;DHT22;10195;50.868;4.382;2024-03-25T13:32:25;14.80;99.90
20070;DHT22;10195;50.868;4.382;2024-03-25T13:34:51;14.80;99.90
20070;DHT22;10195;50.868;4.382;2024-03-25T13:37:16;14.50;99.90
20070;DHT22;10195;50.868;4.382;2024-03-25T13:39:42;14.40;99.90
20070;DHT22;10195;50.868;4.382;2024-03-25T13:42:08;14.30;99.90
20070;DHT22;10195;50.868;4.382;2024-03-25T13:44:33;13.90;99.90
20070;DHT22;10195;50.868;4.382;2024-03-25T13:46:59;13.80;99.90
20070;DHT22;10195;50.868;4.382;2024-03-25T13:49:25;13.70;99.90
20070;DHT22;10195;50.868;4.382;2024-03-25T13:51:57;13.50;99.90
20070;DHT22;10195;50.868;4.382;2024-03-25T13:54:27;13.30;99.90
20070;DHT22;10195;50.868;4.382;2024-03-25T13:56:53;13.40;99.90
20070;DHT22;10195;50.868;4.382;2024-03-25T13:59:19;13.40;99.90
20070;DHT22;10195;50.868;4.382;2024-03-25T14:01:45;13.50;99.90
20070;DHT22;10195;50.868;4.382;2024-03-25T14:04:10;13.60;99.90
20070;DHT22;10195;50.868;4.382;2024-03-25T14:06:37;13.60;99.90
20070;DHT22;10195;50.868;4.382;2024-03-25T14:09:03;13.70;99.90
20070;DHT22;10195;50.868;4.382;2024-03-25T14:11:35;13.90;99.90
20070;DHT22;10195;50.868;4.382;2024-03-25T14:14:02;14.20;99.90
20070;DHT22;10195;50.868;4.382;2024-03-25T14:16:30;14.20;99.90
20070;DHT22;10195;50.868;4.382;2024-03-25T14:18:56;13.80;99.90
20070;DHT22;10195;50.868;4.382;2024-03-25T14:21:22;13.50;99.90
20070;DHT22;10195;50.868;4.382;2024-03-25T14:23:47;13.50;99.90
20070;DHT22;10195;50.868;4.382;2024-03-25T14:26:13;13.40;99.90
20070;DHT22;10195;50.868;4.382;2024-03-25T14:28:42;13.50;99.90
20070;DHT22;10195;50.868;4.382;2024-03-25T14:31:07;13.70;99.90
20070;DHT22;10195;50.868;4.382;2024-03-25T14:33:33;13.80;99.90
20070;DHT22;10195;50.868;4.382;2024-03-25T14:35:59;13.70;99.90
20070;DHT22;10195;50.868;4.382;2024-03-25T14:38:25;13.30;99.90
20070;DHT22;10195;50.868;4.382;2024-03-25T14:40:51;13.20;99.90
20070;DHT22;10195;50.868;4.382;2024-03-25T14:43:16;13.10;99.90
20070;DHT22;10195;50.868;4.382;2024-03-25T14:45:45;13.00;99.90
20070;DHT22;10195;50.868;4.382;2024-03-25T14:48:10;13.00;99.90
20070;DHT22;10195;50.868;4.382;2024-03-25T14:50:36;13.20;99.90
20070;DHT22;10195;50.868;4.382;2024-03-25T14:53:02;13.40;99.90
20070;DHT22;10195;50.868;4.382;2024-03-25T14:55:29;13.40;99.90
20070;DHT22;10195;50.868;4.382;2024-03-25T14:57:55;13.40;99.90
20070;DHT22;10195;50.868;4.382;2024-03-25T15:00:21;13.30;99.90
20070;DHT22;10195;50.868;4.382;2024-03-25T15:02:47;13.20;99.90
20070;DHT22;10195;50.868;4.382;2024-03-25T15:05:13;13.10;99.90
20070;DHT22;10195;50.868;4.382;2024-03-25T15:07:38;13.10;99.90
20070;DHT22;10195;50.868;4.382;2024-03-25T15:10:04;13.20;99.90
20070;DHT22;10195;50.868;4.382;2024-03-25T15:12:30;13.20;99.90
20070;DHT22;10195;50.868;4.382;2024-03-25T15:14:56;13.10;99.90
20070;DHT22;10195;50.868;4.382;2024-03-25T15:17:21;13.10;99.90
20070;DHT22;10195;50.868;4.382;2024-03-25T15:19:47;13.10;99.90
20070;DHT22;10195;50.868;4.382;2024-03-25T15:22:13;13.10;99.90
20070;DHT22;10195;50.868;4.382;2024-03-25T15:24:38;13.10;99.90
20070;DHT22;10195;50.868;4.382;2024-03-25T15:27:04;13.30;99.90
20070;DHT22;10195;50.868;4.382;2024-03-25T15:29:30;13.30;99.90
20070;DHT22;10195;50.868;4.382;2024-03-25T15:31:56;13.30;99.90
20070;DHT22;10195;50.868;4.382;2024-03-25T15:34:21;13.10;99.90